<?xml version="1.0" encoding="UTF-8" standalone="no" ?>
<gpx xmlns="http://www.topografix.com/GPX/1/1" xmlns:xsi="http://www.w3.org/2001/XMLSchema-instance" xsi:schemaLocation="http://www.topografix.com/GPX/1/1 http://www.topografix.com/GPX/1/1/gpx.xsd" version="1.1" creator="VisuGPX - https://www.visugpx.com">
  <metadata>
    <name>Canigou tour</name>
    <desc><![CDATA[Prévision Canigou 8 ou 9 jours]]></desc>
  </metadata>
  <trk>
    <name><![CDATA[Le Pic des Tres Estelles 001]]></name>
    <trkseg>
      <trkpt lat="42.53676" lon="2.31605">
        <ele>882</ele>
        <time>2016-07-11T11:22:32Z</time>
      </trkpt>
      <trkpt lat="42.53672" lon="2.31578">
        <ele>886</ele>
        <time>2016-07-11T11:22:37Z</time>
      </trkpt>
      <trkpt lat="42.53626" lon="2.31481">
        <ele>889</ele>
        <time>2016-07-11T11:22:42Z</time>
      </trkpt>
      <trkpt lat="42.53605" lon="2.31449">
        <ele>889</ele>
        <time>2016-07-11T11:22:47Z</time>
      </trkpt>
      <trkpt lat="42.53592" lon="2.31411">
        <ele>892</ele>
        <time>2016-07-11T11:22:52Z</time>
      </trkpt>
      <trkpt lat="42.53595" lon="2.31388">
        <ele>895</ele>
        <time>2016-07-11T11:22:57Z</time>
      </trkpt>
      <trkpt lat="42.5359" lon="2.31378">
        <ele>895</ele>
        <time>2016-07-11T11:23:02Z</time>
      </trkpt>
      <trkpt lat="42.53598" lon="2.31371">
        <ele>898</ele>
        <time>2016-07-11T11:23:07Z</time>
      </trkpt>
      <trkpt lat="42.53591" lon="2.31357">
        <ele>898</ele>
        <time>2016-07-11T11:23:12Z</time>
      </trkpt>
      <trkpt lat="42.53558" lon="2.31342">
        <ele>896</ele>
        <time>2016-07-11T11:23:17Z</time>
      </trkpt>
      <trkpt lat="42.5352" lon="2.31327">
        <ele>896</ele>
        <time>2016-07-11T11:23:22Z</time>
      </trkpt>
      <trkpt lat="42.53504" lon="2.31311">
        <ele>898</ele>
        <time>2016-07-11T11:23:27Z</time>
      </trkpt>
      <trkpt lat="42.53494" lon="2.31304">
        <ele>898</ele>
        <time>2016-07-11T11:23:32Z</time>
      </trkpt>
      <trkpt lat="42.53474" lon="2.31271">
        <ele>899</ele>
        <time>2016-07-11T11:23:37Z</time>
      </trkpt>
      <trkpt lat="42.5348" lon="2.31256">
        <ele>903</ele>
        <time>2016-07-11T11:23:42Z</time>
      </trkpt>
      <trkpt lat="42.53471" lon="2.31237">
        <ele>905</ele>
        <time>2016-07-11T11:23:47Z</time>
      </trkpt>
      <trkpt lat="42.53463" lon="2.31226">
        <ele>904</ele>
        <time>2016-07-11T11:23:52Z</time>
      </trkpt>
      <trkpt lat="42.53468" lon="2.31194">
        <ele>911</ele>
        <time>2016-07-11T11:23:57Z</time>
      </trkpt>
      <trkpt lat="42.53466" lon="2.31142">
        <ele>919</ele>
        <time>2016-07-11T11:24:02Z</time>
      </trkpt>
      <trkpt lat="42.53477" lon="2.31127">
        <ele>924</ele>
        <time>2016-07-11T11:24:07Z</time>
      </trkpt>
      <trkpt lat="42.53497" lon="2.31161">
        <ele>922</ele>
        <time>2016-07-11T11:24:12Z</time>
      </trkpt>
      <trkpt lat="42.53508" lon="2.31161">
        <ele>924</ele>
        <time>2016-07-11T11:24:17Z</time>
      </trkpt>
      <trkpt lat="42.53509" lon="2.31151">
        <ele>926</ele>
        <time>2016-07-11T11:24:22Z</time>
      </trkpt>
      <trkpt lat="42.53489" lon="2.31104">
        <ele>929</ele>
        <time>2016-07-11T11:24:27Z</time>
      </trkpt>
      <trkpt lat="42.53481" lon="2.31056">
        <ele>935</ele>
        <time>2016-07-11T11:24:32Z</time>
      </trkpt>
      <trkpt lat="42.53459" lon="2.30996">
        <ele>944</ele>
        <time>2016-07-11T11:24:37Z</time>
      </trkpt>
      <trkpt lat="42.53471" lon="2.30981">
        <ele>949</ele>
        <time>2016-07-11T11:24:42Z</time>
      </trkpt>
      <trkpt lat="42.53484" lon="2.3101">
        <ele>943</ele>
        <time>2016-07-11T11:24:47Z</time>
      </trkpt>
      <trkpt lat="42.53504" lon="2.31036">
        <ele>941</ele>
        <time>2016-07-11T11:24:52Z</time>
      </trkpt>
      <trkpt lat="42.53509" lon="2.31076">
        <ele>937</ele>
        <time>2016-07-11T11:24:57Z</time>
      </trkpt>
      <trkpt lat="42.53526" lon="2.31099">
        <ele>936</ele>
        <time>2016-07-11T11:25:02Z</time>
      </trkpt>
      <trkpt lat="42.53558" lon="2.31073">
        <ele>946</ele>
        <time>2016-07-11T11:25:07Z</time>
      </trkpt>
      <trkpt lat="42.53595" lon="2.31066">
        <ele>953</ele>
        <time>2016-07-11T11:25:12Z</time>
      </trkpt>
      <trkpt lat="42.53673" lon="2.31076">
        <ele>958</ele>
        <time>2016-07-11T11:25:17Z</time>
      </trkpt>
      <trkpt lat="42.53706" lon="2.31057">
        <ele>962</ele>
        <time>2016-07-11T11:25:22Z</time>
      </trkpt>
      <trkpt lat="42.53704" lon="2.3104">
        <ele>965</ele>
        <time>2016-07-11T11:25:27Z</time>
      </trkpt>
      <trkpt lat="42.53663" lon="2.31026">
        <ele>966</ele>
        <time>2016-07-11T11:25:32Z</time>
      </trkpt>
      <trkpt lat="42.53637" lon="2.31004">
        <ele>967</ele>
        <time>2016-07-11T11:25:37Z</time>
      </trkpt>
      <trkpt lat="42.53604" lon="2.3098">
        <ele>969</ele>
        <time>2016-07-11T11:25:42Z</time>
      </trkpt>
      <trkpt lat="42.53522" lon="2.30917">
        <ele>968</ele>
        <time>2016-07-11T11:25:47Z</time>
      </trkpt>
      <trkpt lat="42.53515" lon="2.30891">
        <ele>972</ele>
        <time>2016-07-11T11:25:52Z</time>
      </trkpt>
      <trkpt lat="42.53529" lon="2.30881">
        <ele>977</ele>
        <time>2016-07-11T11:25:57Z</time>
      </trkpt>
      <trkpt lat="42.53548" lon="2.30887">
        <ele>979</ele>
        <time>2016-07-11T11:26:02Z</time>
      </trkpt>
      <trkpt lat="42.5357" lon="2.30918">
        <ele>977</ele>
        <time>2016-07-11T11:26:07Z</time>
      </trkpt>
      <trkpt lat="42.53592" lon="2.30929">
        <ele>978</ele>
        <time>2016-07-11T11:26:12Z</time>
      </trkpt>
      <trkpt lat="42.53627" lon="2.30934">
        <ele>982</ele>
        <time>2016-07-11T11:26:17Z</time>
      </trkpt>
      <trkpt lat="42.53655" lon="2.30907">
        <ele>991</ele>
        <time>2016-07-11T11:26:22Z</time>
      </trkpt>
      <trkpt lat="42.53688" lon="2.30897">
        <ele>995</ele>
        <time>2016-07-11T11:26:27Z</time>
      </trkpt>
      <trkpt lat="42.53685" lon="2.30883">
        <ele>997</ele>
        <time>2016-07-11T11:26:32Z</time>
      </trkpt>
      <trkpt lat="42.53655" lon="2.30886">
        <ele>995</ele>
        <time>2016-07-11T11:26:37Z</time>
      </trkpt>
      <trkpt lat="42.53627" lon="2.30891">
        <ele>991</ele>
        <time>2016-07-11T11:26:42Z</time>
      </trkpt>
      <trkpt lat="42.53614" lon="2.30888">
        <ele>990</ele>
        <time>2016-07-11T11:26:47Z</time>
      </trkpt>
      <trkpt lat="42.53604" lon="2.30879">
        <ele>991</ele>
        <time>2016-07-11T11:26:52Z</time>
      </trkpt>
      <trkpt lat="42.53596" lon="2.30868">
        <ele>992</ele>
        <time>2016-07-11T11:26:57Z</time>
      </trkpt>
      <trkpt lat="42.53581" lon="2.30844">
        <ele>995</ele>
        <time>2016-07-11T11:27:02Z</time>
      </trkpt>
      <trkpt lat="42.5358" lon="2.30831">
        <ele>998</ele>
        <time>2016-07-11T11:27:07Z</time>
      </trkpt>
      <trkpt lat="42.53565" lon="2.30786">
        <ele>1005</ele>
        <time>2016-07-11T11:27:12Z</time>
      </trkpt>
      <trkpt lat="42.5354" lon="2.30755">
        <ele>1007</ele>
        <time>2016-07-11T11:27:17Z</time>
      </trkpt>
      <trkpt lat="42.53516" lon="2.30732">
        <ele>1010</ele>
        <time>2016-07-11T11:27:22Z</time>
      </trkpt>
      <trkpt lat="42.535" lon="2.30709">
        <ele>1013</ele>
        <time>2016-07-11T11:27:27Z</time>
      </trkpt>
      <trkpt lat="42.53506" lon="2.30697">
        <ele>1018</ele>
        <time>2016-07-11T11:27:32Z</time>
      </trkpt>
      <trkpt lat="42.53552" lon="2.30734">
        <ele>1015</ele>
        <time>2016-07-11T11:27:37Z</time>
      </trkpt>
      <trkpt lat="42.53608" lon="2.30734">
        <ele>1022</ele>
        <time>2016-07-11T11:27:42Z</time>
      </trkpt>
      <trkpt lat="42.53629" lon="2.30738">
        <ele>1021</ele>
        <time>2016-07-11T11:27:47Z</time>
      </trkpt>
      <trkpt lat="42.53656" lon="2.30746">
        <ele>1021</ele>
        <time>2016-07-11T11:27:52Z</time>
      </trkpt>
      <trkpt lat="42.53658" lon="2.30736">
        <ele>1023</ele>
        <time>2016-07-11T11:27:57Z</time>
      </trkpt>
      <trkpt lat="42.53651" lon="2.30728">
        <ele>1025</ele>
        <time>2016-07-11T11:28:02Z</time>
      </trkpt>
      <trkpt lat="42.53615" lon="2.30706">
        <ele>1029</ele>
        <time>2016-07-11T11:28:07Z</time>
      </trkpt>
      <trkpt lat="42.53606" lon="2.30701">
        <ele>1031</ele>
        <time>2016-07-11T11:28:12Z</time>
      </trkpt>
      <trkpt lat="42.53599" lon="2.30686">
        <ele>1035</ele>
        <time>2016-07-11T11:28:17Z</time>
      </trkpt>
      <trkpt lat="42.53646" lon="2.30661">
        <ele>1041</ele>
        <time>2016-07-11T11:28:22Z</time>
      </trkpt>
      <trkpt lat="42.5368" lon="2.3065">
        <ele>1042</ele>
        <time>2016-07-11T11:28:27Z</time>
      </trkpt>
      <trkpt lat="42.5369" lon="2.30637">
        <ele>1043</ele>
        <time>2016-07-11T11:28:32Z</time>
      </trkpt>
      <trkpt lat="42.5368" lon="2.30627">
        <ele>1047</ele>
        <time>2016-07-11T11:28:37Z</time>
      </trkpt>
      <trkpt lat="42.53648" lon="2.30632">
        <ele>1047</ele>
        <time>2016-07-11T11:28:42Z</time>
      </trkpt>
      <trkpt lat="42.53611" lon="2.30617">
        <ele>1051</ele>
        <time>2016-07-11T11:28:47Z</time>
      </trkpt>
      <trkpt lat="42.53587" lon="2.30607">
        <ele>1054</ele>
        <time>2016-07-11T11:28:52Z</time>
      </trkpt>
      <trkpt lat="42.53562" lon="2.30594">
        <ele>1054</ele>
        <time>2016-07-11T11:28:57Z</time>
      </trkpt>
      <trkpt lat="42.53525" lon="2.30586">
        <ele>1051</ele>
        <time>2016-07-11T11:29:02Z</time>
      </trkpt>
      <trkpt lat="42.53473" lon="2.30475">
        <ele>1065</ele>
        <time>2016-07-11T11:29:07Z</time>
      </trkpt>
      <trkpt lat="42.53424" lon="2.30434">
        <ele>1068</ele>
        <time>2016-07-11T11:29:12Z</time>
      </trkpt>
      <trkpt lat="42.53432" lon="2.30423">
        <ele>1071</ele>
        <time>2016-07-11T11:29:17Z</time>
      </trkpt>
      <trkpt lat="42.53534" lon="2.30459">
        <ele>1076</ele>
        <time>2016-07-11T11:29:22Z</time>
      </trkpt>
      <trkpt lat="42.53601" lon="2.30496">
        <ele>1072</ele>
        <time>2016-07-11T11:29:27Z</time>
      </trkpt>
      <trkpt lat="42.53615" lon="2.30501">
        <ele>1071</ele>
        <time>2016-07-11T11:29:32Z</time>
      </trkpt>
      <trkpt lat="42.5362" lon="2.3049">
        <ele>1073</ele>
        <time>2016-07-11T11:29:37Z</time>
      </trkpt>
      <trkpt lat="42.53577" lon="2.30441">
        <ele>1086</ele>
        <time>2016-07-11T11:29:42Z</time>
      </trkpt>
      <trkpt lat="42.5355" lon="2.30384">
        <ele>1096</ele>
        <time>2016-07-11T11:29:47Z</time>
      </trkpt>
      <trkpt lat="42.53478" lon="2.30288">
        <ele>1115</ele>
        <time>2016-07-11T11:29:52Z</time>
      </trkpt>
      <trkpt lat="42.53461" lon="2.30226">
        <ele>1133</ele>
        <time>2016-07-11T11:29:57Z</time>
      </trkpt>
      <trkpt lat="42.53422" lon="2.30239">
        <ele>1127</ele>
        <time>2016-07-11T11:30:02Z</time>
      </trkpt>
      <trkpt lat="42.53394" lon="2.3023">
        <ele>1128</ele>
        <time>2016-07-11T11:30:07Z</time>
      </trkpt>
      <trkpt lat="42.53361" lon="2.30177">
        <ele>1140</ele>
        <time>2016-07-11T11:30:12Z</time>
      </trkpt>
      <trkpt lat="42.53306" lon="2.30167">
        <ele>1139</ele>
        <time>2016-07-11T11:30:17Z</time>
      </trkpt>
      <trkpt lat="42.53267" lon="2.30143">
        <ele>1143</ele>
        <time>2016-07-11T11:30:22Z</time>
      </trkpt>
      <trkpt lat="42.53225" lon="2.30104">
        <ele>1152</ele>
        <time>2016-07-11T11:30:27Z</time>
      </trkpt>
      <trkpt lat="42.53163" lon="2.30102">
        <ele>1151</ele>
        <time>2016-07-11T11:30:32Z</time>
      </trkpt>
      <trkpt lat="42.5307" lon="2.30099">
        <ele>1157</ele>
        <time>2016-07-11T11:30:37Z</time>
      </trkpt>
      <trkpt lat="42.52972" lon="2.30056">
        <ele>1169</ele>
        <time>2016-07-11T11:30:42Z</time>
      </trkpt>
      <trkpt lat="42.52913" lon="2.30007">
        <ele>1181</ele>
        <time>2016-07-11T11:30:47Z</time>
      </trkpt>
      <trkpt lat="42.52924" lon="2.29985">
        <ele>1185</ele>
        <time>2016-07-11T11:30:52Z</time>
      </trkpt>
      <trkpt lat="42.52956" lon="2.29976">
        <ele>1186</ele>
        <time>2016-07-11T11:30:57Z</time>
      </trkpt>
      <trkpt lat="42.52974" lon="2.29954">
        <ele>1189</ele>
        <time>2016-07-11T11:31:02Z</time>
      </trkpt>
      <trkpt lat="42.52908" lon="2.29923">
        <ele>1197</ele>
        <time>2016-07-11T11:31:07Z</time>
      </trkpt>
      <trkpt lat="42.52924" lon="2.29916">
        <ele>1197</ele>
        <time>2016-07-11T11:31:12Z</time>
      </trkpt>
      <trkpt lat="42.52932" lon="2.29904">
        <ele>1195</ele>
        <time>2016-07-11T11:31:17Z</time>
      </trkpt>
      <trkpt lat="42.52929" lon="2.29891">
        <ele>1194</ele>
        <time>2016-07-11T11:31:22Z</time>
      </trkpt>
      <trkpt lat="42.52915" lon="2.29882">
        <ele>1194</ele>
        <time>2016-07-11T11:31:27Z</time>
      </trkpt>
      <trkpt lat="42.52851" lon="2.29882">
        <ele>1208</ele>
        <time>2016-07-11T11:31:32Z</time>
      </trkpt>
      <trkpt lat="42.52819" lon="2.2989">
        <ele>1218</ele>
        <time>2016-07-11T11:31:37Z</time>
      </trkpt>
      <trkpt lat="42.52797" lon="2.29902">
        <ele>1227</ele>
        <time>2016-07-11T11:31:42Z</time>
      </trkpt>
      <trkpt lat="42.5276" lon="2.29986">
        <ele>1233</ele>
        <time>2016-07-11T11:31:47Z</time>
      </trkpt>
      <trkpt lat="42.52757" lon="2.30008">
        <ele>1229</ele>
        <time>2016-07-11T11:31:52Z</time>
      </trkpt>
      <trkpt lat="42.52742" lon="2.30024">
        <ele>1229</ele>
        <time>2016-07-11T11:31:57Z</time>
      </trkpt>
      <trkpt lat="42.52721" lon="2.3004">
        <ele>1230</ele>
        <time>2016-07-11T11:32:02Z</time>
      </trkpt>
      <trkpt lat="42.52697" lon="2.30027">
        <ele>1241</ele>
        <time>2016-07-11T11:32:07Z</time>
      </trkpt>
      <trkpt lat="42.52681" lon="2.3004">
        <ele>1241</ele>
        <time>2016-07-11T11:32:12Z</time>
      </trkpt>
      <trkpt lat="42.52647" lon="2.30032">
        <ele>1253</ele>
        <time>2016-07-11T11:32:17Z</time>
      </trkpt>
      <trkpt lat="42.52615" lon="2.30027">
        <ele>1262</ele>
        <time>2016-07-11T11:32:22Z</time>
      </trkpt>
      <trkpt lat="42.52575" lon="2.30022">
        <ele>1274</ele>
        <time>2016-07-11T11:32:27Z</time>
      </trkpt>
      <trkpt lat="42.5247" lon="2.30088">
        <ele>1297</ele>
        <time>2016-07-11T11:32:32Z</time>
      </trkpt>
      <trkpt lat="42.52393" lon="2.3017">
        <ele>1335</ele>
        <time>2016-07-11T11:32:37Z</time>
      </trkpt>
      <trkpt lat="42.52398" lon="2.30214">
        <ele>1348</ele>
        <time>2016-07-11T11:32:42Z</time>
      </trkpt>
      <trkpt lat="42.52412" lon="2.30246">
        <ele>1354</ele>
        <time>2016-07-11T11:32:47Z</time>
      </trkpt>
      <trkpt lat="42.52378" lon="2.30293">
        <ele>1381</ele>
        <time>2016-07-11T11:32:52Z</time>
      </trkpt>
      <trkpt lat="42.52345" lon="2.30307">
        <ele>1398</ele>
        <time>2016-07-11T11:32:57Z</time>
      </trkpt>
      <trkpt lat="42.52316" lon="2.30308">
        <ele>1410</ele>
        <time>2016-07-11T11:33:02Z</time>
      </trkpt>
      <trkpt lat="42.52265" lon="2.30295">
        <ele>1426</ele>
        <time>2016-07-11T11:33:07Z</time>
      </trkpt>
      <trkpt lat="42.5224" lon="2.30303">
        <ele>1439</ele>
        <time>2016-07-11T11:33:12Z</time>
      </trkpt>
      <trkpt lat="42.52197" lon="2.30356">
        <ele>1465</ele>
        <time>2016-07-11T11:33:17Z</time>
      </trkpt>
      <trkpt lat="42.5217" lon="2.30404">
        <ele>1479</ele>
        <time>2016-07-11T11:33:22Z</time>
      </trkpt>
      <trkpt lat="42.52173" lon="2.30439">
        <ele>1478</ele>
        <time>2016-07-11T11:33:27Z</time>
      </trkpt>
      <trkpt lat="42.5216" lon="2.30444">
        <ele>1481</ele>
        <time>2016-07-11T11:33:32Z</time>
      </trkpt>
      <trkpt lat="42.52111" lon="2.30459">
        <ele>1493</ele>
        <time>2016-07-11T11:33:37Z</time>
      </trkpt>
      <trkpt lat="42.52068" lon="2.30476">
        <ele>1504</ele>
        <time>2016-07-11T11:33:42Z</time>
      </trkpt>
      <trkpt lat="42.52046" lon="2.3047">
        <ele>1514</ele>
        <time>2016-07-11T11:33:47Z</time>
      </trkpt>
      <trkpt lat="42.52039" lon="2.30425">
        <ele>1521</ele>
        <time>2016-07-11T11:33:52Z</time>
      </trkpt>
      <trkpt lat="42.52007" lon="2.30393">
        <ele>1532</ele>
        <time>2016-07-11T11:33:57Z</time>
      </trkpt>
      <trkpt lat="42.51968" lon="2.30389">
        <ele>1548</ele>
        <time>2016-07-11T11:34:02Z</time>
      </trkpt>
      <trkpt lat="42.51928" lon="2.304">
        <ele>1566</ele>
        <time>2016-07-11T11:34:07Z</time>
      </trkpt>
      <trkpt lat="42.51842" lon="2.30481">
        <ele>1615</ele>
        <time>2016-07-11T11:34:12Z</time>
      </trkpt>
      <trkpt lat="42.51792" lon="2.30544">
        <ele>1636</ele>
        <time>2016-07-11T11:34:17Z</time>
      </trkpt>
      <trkpt lat="42.51735" lon="2.30591">
        <ele>1658</ele>
        <time>2016-07-11T11:34:22Z</time>
      </trkpt>
      <trkpt lat="42.51698" lon="2.30632">
        <ele>1668</ele>
        <time>2016-07-11T11:34:27Z</time>
      </trkpt>
      <trkpt lat="42.51668" lon="2.30661">
        <ele>1680</ele>
        <time>2016-07-11T11:34:32Z</time>
      </trkpt>
      <trkpt lat="42.51617" lon="2.30678">
        <ele>1681</ele>
        <time>2016-07-11T11:34:37Z</time>
      </trkpt>
      <trkpt lat="42.51569" lon="2.30795">
        <ele>1700</ele>
        <time>2016-07-11T11:34:42Z</time>
      </trkpt>
      <trkpt lat="42.51506" lon="2.30917">
        <ele>1736</ele>
        <time>2016-07-11T11:34:47Z</time>
      </trkpt>
      <trkpt lat="42.51465" lon="2.30965">
        <ele>1738</ele>
        <time>2016-07-11T11:34:52Z</time>
      </trkpt>
      <trkpt lat="42.51457" lon="2.31011">
        <ele>1749</ele>
        <time>2016-07-11T11:34:57Z</time>
      </trkpt>
      <trkpt lat="42.51451" lon="2.31055">
        <ele>1756</ele>
        <time>2016-07-11T11:35:02Z</time>
      </trkpt>
      <trkpt lat="42.51434" lon="2.31104">
        <ele>1759</ele>
        <time>2016-07-11T11:35:07Z</time>
      </trkpt>
      <trkpt lat="42.51414" lon="2.31216">
        <ele>1776</ele>
        <time>2016-07-11T11:35:12Z</time>
      </trkpt>
      <trkpt lat="42.51421" lon="2.31274">
        <ele>1784</ele>
        <time>2016-07-11T11:35:17Z</time>
      </trkpt>
      <trkpt lat="42.51409" lon="2.31293">
        <ele>1786</ele>
        <time>2016-07-11T11:35:22Z</time>
      </trkpt>
      <trkpt lat="42.5139" lon="2.313">
        <ele>1786</ele>
        <time>2016-07-11T11:35:27Z</time>
      </trkpt>
      <trkpt lat="42.51379" lon="2.31323">
        <ele>1791</ele>
        <time>2016-07-11T11:35:32Z</time>
      </trkpt>
      <trkpt lat="42.51401" lon="2.31293">
        <ele>1785</ele>
        <time>2016-07-11T11:35:37Z</time>
      </trkpt>
      <trkpt lat="42.51411" lon="2.31288">
        <ele>1786</ele>
        <time>2016-07-11T11:35:42Z</time>
      </trkpt>
      <trkpt lat="42.51386" lon="2.31313">
        <ele>1789</ele>
        <time>2016-07-11T11:35:47Z</time>
      </trkpt>
      <trkpt lat="42.51391" lon="2.31306">
        <ele>1787</ele>
        <time>2016-07-11T11:35:52Z</time>
      </trkpt>
      <trkpt lat="42.51391" lon="2.31307">
        <ele>1787</ele>
        <time>2016-07-11T11:35:57Z</time>
      </trkpt>
      <trkpt lat="42.51385" lon="2.31325">
        <ele>1791</ele>
        <time>2016-07-11T11:36:02Z</time>
      </trkpt>
      <trkpt lat="42.51386" lon="2.31324">
        <ele>1791</ele>
        <time>2016-07-11T11:36:07Z</time>
      </trkpt>
      <trkpt lat="42.51386" lon="2.31324">
        <ele>1791</ele>
        <time>2016-07-11T11:36:12Z</time>
      </trkpt>
      <trkpt lat="42.51369" lon="2.31429">
        <ele>1812</ele>
        <time>2016-07-11T11:36:17Z</time>
      </trkpt>
      <trkpt lat="42.51321" lon="2.31506">
        <ele>1839</ele>
        <time>2016-07-11T11:36:22Z</time>
      </trkpt>
      <trkpt lat="42.51203" lon="2.31637">
        <ele>1876</ele>
        <time>2016-07-11T11:36:27Z</time>
      </trkpt>
      <trkpt lat="42.51185" lon="2.3167">
        <ele>1887</ele>
        <time>2016-07-11T11:36:32Z</time>
      </trkpt>
      <trkpt lat="42.51172" lon="2.31732">
        <ele>1899</ele>
        <time>2016-07-11T11:36:37Z</time>
      </trkpt>
      <trkpt lat="42.51158" lon="2.31798">
        <ele>1907</ele>
        <time>2016-07-11T11:36:42Z</time>
      </trkpt>
      <trkpt lat="42.51128" lon="2.31834">
        <ele>1920</ele>
        <time>2016-07-11T11:36:47Z</time>
      </trkpt>
      <trkpt lat="42.51102" lon="2.31876">
        <ele>1934</ele>
        <time>2016-07-11T11:36:52Z</time>
      </trkpt>
      <trkpt lat="42.51075" lon="2.31956">
        <ele>1954</ele>
        <time>2016-07-11T11:36:57Z</time>
      </trkpt>
      <trkpt lat="42.51067" lon="2.32008">
        <ele>1961</ele>
        <time>2016-07-11T11:37:02Z</time>
      </trkpt>
      <trkpt lat="42.51056" lon="2.32002">
        <ele>1963</ele>
        <time>2016-07-11T11:37:07Z</time>
      </trkpt>
      <trkpt lat="42.51034" lon="2.32005">
        <ele>1970</ele>
        <time>2016-07-11T11:37:12Z</time>
      </trkpt>
      <trkpt lat="42.51028" lon="2.31984">
        <ele>1966</ele>
        <time>2016-07-11T11:37:17Z</time>
      </trkpt>
      <trkpt lat="42.51017" lon="2.31988">
        <ele>1970</ele>
        <time>2016-07-11T11:37:22Z</time>
      </trkpt>
      <trkpt lat="42.50998" lon="2.3202">
        <ele>1982</ele>
        <time>2016-07-11T11:37:27Z</time>
      </trkpt>
      <trkpt lat="42.50981" lon="2.32053">
        <ele>1986</ele>
        <time>2016-07-11T11:37:32Z</time>
      </trkpt>
      <trkpt lat="42.50949" lon="2.32099">
        <ele>1996</ele>
        <time>2016-07-11T11:37:37Z</time>
      </trkpt>
      <trkpt lat="42.5093" lon="2.32135">
        <ele>2012</ele>
        <time>2016-07-11T11:37:42Z</time>
      </trkpt>
      <trkpt lat="42.50897" lon="2.3218">
        <ele>2033</ele>
        <time>2016-07-11T11:37:47Z</time>
      </trkpt>
      <trkpt lat="42.50805" lon="2.32234">
        <ele>2049</ele>
        <time>2016-07-11T11:37:52Z</time>
      </trkpt>
      <trkpt lat="42.5076" lon="2.32262">
        <ele>2053</ele>
        <time>2016-07-11T11:37:57Z</time>
      </trkpt>
      <trkpt lat="42.50718" lon="2.32307">
        <ele>2056</ele>
        <time>2016-07-11T11:38:02Z</time>
      </trkpt>
      <trkpt lat="42.50811" lon="2.32333">
        <ele>2073</ele>
        <time>2016-07-11T11:38:07Z</time>
      </trkpt>
      <trkpt lat="42.50878" lon="2.32322">
        <ele>2078</ele>
        <time>2016-07-11T11:38:12Z</time>
      </trkpt>
      <trkpt lat="42.50813" lon="2.32335">
        <ele>2074</ele>
        <time>2016-07-11T11:38:17Z</time>
      </trkpt>
      <trkpt lat="42.50721" lon="2.3231">
        <ele>2056</ele>
        <time>2016-07-11T11:38:22Z</time>
      </trkpt>
      <trkpt lat="42.50681" lon="2.3233">
        <ele>2053</ele>
        <time>2016-07-11T11:38:27Z</time>
      </trkpt>
      <trkpt lat="42.50724" lon="2.32358">
        <ele>2051</ele>
        <time>2016-07-11T11:38:32Z</time>
      </trkpt>
      <trkpt lat="42.5076" lon="2.32405">
        <ele>2050</ele>
        <time>2016-07-11T11:38:37Z</time>
      </trkpt>
      <trkpt lat="42.50785" lon="2.32455">
        <ele>2045</ele>
        <time>2016-07-11T11:38:42Z</time>
      </trkpt>
      <trkpt lat="42.50808" lon="2.32533">
        <ele>2031</ele>
        <time>2016-07-11T11:38:47Z</time>
      </trkpt>
      <trkpt lat="42.50832" lon="2.32638">
        <ele>2010</ele>
        <time>2016-07-11T11:38:52Z</time>
      </trkpt>
      <trkpt lat="42.50841" lon="2.32685">
        <ele>1996</ele>
        <time>2016-07-11T11:38:57Z</time>
      </trkpt>
      <trkpt lat="42.50856" lon="2.32733">
        <ele>1976</ele>
        <time>2016-07-11T11:39:02Z</time>
      </trkpt>
      <trkpt lat="42.50846" lon="2.32808">
        <ele>1965</ele>
        <time>2016-07-11T11:39:07Z</time>
      </trkpt>
      <trkpt lat="42.5084" lon="2.32952">
        <ele>1956</ele>
        <time>2016-07-11T11:39:12Z</time>
      </trkpt>
      <trkpt lat="42.50829" lon="2.33003">
        <ele>1954</ele>
        <time>2016-07-11T11:39:17Z</time>
      </trkpt>
      <trkpt lat="42.50839" lon="2.33055">
        <ele>1946</ele>
        <time>2016-07-11T11:39:22Z</time>
      </trkpt>
      <trkpt lat="42.50845" lon="2.33102">
        <ele>1936</ele>
        <time>2016-07-11T11:39:27Z</time>
      </trkpt>
      <trkpt lat="42.50838" lon="2.33166">
        <ele>1924</ele>
        <time>2016-07-11T11:39:32Z</time>
      </trkpt>
      <trkpt lat="42.5083" lon="2.33252">
        <ele>1906</ele>
        <time>2016-07-11T11:39:37Z</time>
      </trkpt>
      <trkpt lat="42.5081" lon="2.33292">
        <ele>1882</ele>
        <time>2016-07-11T11:39:42Z</time>
      </trkpt>
      <trkpt lat="42.50792" lon="2.33342">
        <ele>1861</ele>
        <time>2016-07-11T11:39:47Z</time>
      </trkpt>
      <trkpt lat="42.50776" lon="2.33393">
        <ele>1843</ele>
        <time>2016-07-11T11:39:52Z</time>
      </trkpt>
      <trkpt lat="42.50794" lon="2.33383">
        <ele>1844</ele>
        <time>2016-07-11T11:39:57Z</time>
      </trkpt>
      <trkpt lat="42.5081" lon="2.33361">
        <ele>1852</ele>
        <time>2016-07-11T11:40:02Z</time>
      </trkpt>
      <trkpt lat="42.50854" lon="2.3335">
        <ele>1852</ele>
        <time>2016-07-11T11:40:07Z</time>
      </trkpt>
      <trkpt lat="42.50901" lon="2.33318">
        <ele>1855</ele>
        <time>2016-07-11T11:40:12Z</time>
      </trkpt>
      <trkpt lat="42.50938" lon="2.33311">
        <ele>1843</ele>
        <time>2016-07-11T11:40:17Z</time>
      </trkpt>
      <trkpt lat="42.50976" lon="2.33286">
        <ele>1832</ele>
        <time>2016-07-11T11:40:22Z</time>
      </trkpt>
      <trkpt lat="42.50987" lon="2.33237">
        <ele>1840</ele>
        <time>2016-07-11T11:40:27Z</time>
      </trkpt>
      <trkpt lat="42.51009" lon="2.33195">
        <ele>1834</ele>
        <time>2016-07-11T11:40:32Z</time>
      </trkpt>
      <trkpt lat="42.51045" lon="2.33163">
        <ele>1824</ele>
        <time>2016-07-11T11:40:37Z</time>
      </trkpt>
      <trkpt lat="42.51102" lon="2.33158">
        <ele>1801</ele>
        <time>2016-07-11T11:40:42Z</time>
      </trkpt>
      <trkpt lat="42.51136" lon="2.33178">
        <ele>1789</ele>
        <time>2016-07-11T11:40:47Z</time>
      </trkpt>
      <trkpt lat="42.51158" lon="2.33181">
        <ele>1782</ele>
        <time>2016-07-11T11:40:52Z</time>
      </trkpt>
      <trkpt lat="42.5116" lon="2.33169">
        <ele>1782</ele>
        <time>2016-07-11T11:40:57Z</time>
      </trkpt>
      <trkpt lat="42.51166" lon="2.33111">
        <ele>1774</ele>
        <time>2016-07-11T11:41:02Z</time>
      </trkpt>
      <trkpt lat="42.51192" lon="2.33055">
        <ele>1750</ele>
        <time>2016-07-11T11:41:07Z</time>
      </trkpt>
      <trkpt lat="42.51175" lon="2.33007">
        <ele>1756</ele>
        <time>2016-07-11T11:41:12Z</time>
      </trkpt>
      <trkpt lat="42.51164" lon="2.32989">
        <ele>1762</ele>
        <time>2016-07-11T11:41:17Z</time>
      </trkpt>
      <trkpt lat="42.51163" lon="2.32967">
        <ele>1765</ele>
        <time>2016-07-11T11:41:22Z</time>
      </trkpt>
      <trkpt lat="42.51192" lon="2.3291">
        <ele>1762</ele>
        <time>2016-07-11T11:41:27Z</time>
      </trkpt>
      <trkpt lat="42.51227" lon="2.32878">
        <ele>1767</ele>
        <time>2016-07-11T11:41:32Z</time>
      </trkpt>
      <trkpt lat="42.51268" lon="2.32876">
        <ele>1762</ele>
        <time>2016-07-11T11:41:37Z</time>
      </trkpt>
      <trkpt lat="42.51298" lon="2.32884">
        <ele>1758</ele>
        <time>2016-07-11T11:41:42Z</time>
      </trkpt>
      <trkpt lat="42.51355" lon="2.32851">
        <ele>1777</ele>
        <time>2016-07-11T11:41:47Z</time>
      </trkpt>
      <trkpt lat="42.5138" lon="2.32865">
        <ele>1766</ele>
        <time>2016-07-11T11:41:52Z</time>
      </trkpt>
      <trkpt lat="42.51429" lon="2.32884">
        <ele>1748</ele>
        <time>2016-07-11T11:41:57Z</time>
      </trkpt>
      <trkpt lat="42.51475" lon="2.32829">
        <ele>1763</ele>
        <time>2016-07-11T11:42:02Z</time>
      </trkpt>
      <trkpt lat="42.51523" lon="2.32831">
        <ele>1756</ele>
        <time>2016-07-11T11:42:07Z</time>
      </trkpt>
      <trkpt lat="42.5154" lon="2.32864">
        <ele>1744</ele>
        <time>2016-07-11T11:42:12Z</time>
      </trkpt>
      <trkpt lat="42.51565" lon="2.32942">
        <ele>1711</ele>
        <time>2016-07-11T11:42:17Z</time>
      </trkpt>
      <trkpt lat="42.51603" lon="2.32927">
        <ele>1719</ele>
        <time>2016-07-11T11:42:22Z</time>
      </trkpt>
      <trkpt lat="42.51651" lon="2.32929">
        <ele>1717</ele>
        <time>2016-07-11T11:42:27Z</time>
      </trkpt>
      <trkpt lat="42.51693" lon="2.32972">
        <ele>1698</ele>
        <time>2016-07-11T11:42:32Z</time>
      </trkpt>
      <trkpt lat="42.51708" lon="2.32955">
        <ele>1700</ele>
        <time>2016-07-11T11:42:37Z</time>
      </trkpt>
      <trkpt lat="42.51759" lon="2.32934">
        <ele>1694</ele>
        <time>2016-07-11T11:42:42Z</time>
      </trkpt>
      <trkpt lat="42.51825" lon="2.32987">
        <ele>1661</ele>
        <time>2016-07-11T11:42:47Z</time>
      </trkpt>
      <trkpt lat="42.51882" lon="2.33058">
        <ele>1628</ele>
        <time>2016-07-11T11:42:52Z</time>
      </trkpt>
      <trkpt lat="42.51885" lon="2.33071">
        <ele>1625</ele>
        <time>2016-07-11T11:42:57Z</time>
      </trkpt>
      <trkpt lat="42.51901" lon="2.33067">
        <ele>1623</ele>
        <time>2016-07-11T11:43:02Z</time>
      </trkpt>
      <trkpt lat="42.51909" lon="2.33024">
        <ele>1629</ele>
        <time>2016-07-11T11:43:07Z</time>
      </trkpt>
      <trkpt lat="42.51914" lon="2.32938">
        <ele>1633</ele>
        <time>2016-07-11T11:43:12Z</time>
      </trkpt>
      <trkpt lat="42.51985" lon="2.32782">
        <ele>1610</ele>
        <time>2016-07-11T11:43:17Z</time>
      </trkpt>
      <trkpt lat="42.51978" lon="2.32957">
        <ele>1593</ele>
        <time>2016-07-11T11:43:22Z</time>
      </trkpt>
      <trkpt lat="42.51983" lon="2.33011">
        <ele>1587</ele>
        <time>2016-07-11T11:43:27Z</time>
      </trkpt>
      <trkpt lat="42.51991" lon="2.33041">
        <ele>1579</ele>
        <time>2016-07-11T11:43:32Z</time>
      </trkpt>
      <trkpt lat="42.52001" lon="2.3291">
        <ele>1583</ele>
        <time>2016-07-11T11:43:37Z</time>
      </trkpt>
      <trkpt lat="42.5204" lon="2.32802">
        <ele>1571</ele>
        <time>2016-07-11T11:43:42Z</time>
      </trkpt>
      <trkpt lat="42.5208" lon="2.32721">
        <ele>1561</ele>
        <time>2016-07-11T11:43:47Z</time>
      </trkpt>
      <trkpt lat="42.52171" lon="2.32653">
        <ele>1532</ele>
        <time>2016-07-11T11:43:52Z</time>
      </trkpt>
      <trkpt lat="42.52111" lon="2.32775">
        <ele>1532</ele>
        <time>2016-07-11T11:43:57Z</time>
      </trkpt>
      <trkpt lat="42.52089" lon="2.32814">
        <ele>1536</ele>
        <time>2016-07-11T11:44:02Z</time>
      </trkpt>
      <trkpt lat="42.52066" lon="2.32911">
        <ele>1535</ele>
        <time>2016-07-11T11:44:07Z</time>
      </trkpt>
      <trkpt lat="42.52051" lon="2.32937">
        <ele>1542</ele>
        <time>2016-07-11T11:44:12Z</time>
      </trkpt>
      <trkpt lat="42.52046" lon="2.32961">
        <ele>1542</ele>
        <time>2016-07-11T11:44:17Z</time>
      </trkpt>
      <trkpt lat="42.52054" lon="2.33034">
        <ele>1528</ele>
        <time>2016-07-11T11:44:22Z</time>
      </trkpt>
      <trkpt lat="42.5206" lon="2.33011">
        <ele>1523</ele>
        <time>2016-07-11T11:44:27Z</time>
      </trkpt>
      <trkpt lat="42.52066" lon="2.33043">
        <ele>1517</ele>
        <time>2016-07-11T11:44:32Z</time>
      </trkpt>
      <trkpt lat="42.52073" lon="2.33016">
        <ele>1511</ele>
        <time>2016-07-11T11:44:37Z</time>
      </trkpt>
      <trkpt lat="42.52079" lon="2.33041">
        <ele>1505</ele>
        <time>2016-07-11T11:44:42Z</time>
      </trkpt>
      <trkpt lat="42.52091" lon="2.33002">
        <ele>1497</ele>
        <time>2016-07-11T11:44:47Z</time>
      </trkpt>
      <trkpt lat="42.52099" lon="2.33049">
        <ele>1492</ele>
        <time>2016-07-11T11:44:52Z</time>
      </trkpt>
      <trkpt lat="42.52108" lon="2.33019">
        <ele>1486</ele>
        <time>2016-07-11T11:44:57Z</time>
      </trkpt>
      <trkpt lat="42.52117" lon="2.33117">
        <ele>1479</ele>
        <time>2016-07-11T11:45:02Z</time>
      </trkpt>
      <trkpt lat="42.52129" lon="2.33189">
        <ele>1464</ele>
        <time>2016-07-11T11:45:07Z</time>
      </trkpt>
      <trkpt lat="42.52137" lon="2.33193">
        <ele>1459</ele>
        <time>2016-07-11T11:45:12Z</time>
      </trkpt>
      <trkpt lat="42.5216" lon="2.33108">
        <ele>1454</ele>
        <time>2016-07-11T11:45:17Z</time>
      </trkpt>
      <trkpt lat="42.52159" lon="2.33022">
        <ele>1454</ele>
        <time>2016-07-11T11:45:22Z</time>
      </trkpt>
      <trkpt lat="42.52165" lon="2.33011">
        <ele>1449</ele>
        <time>2016-07-11T11:45:27Z</time>
      </trkpt>
      <trkpt lat="42.52171" lon="2.33036">
        <ele>1446</ele>
        <time>2016-07-11T11:45:32Z</time>
      </trkpt>
      <trkpt lat="42.52176" lon="2.33052">
        <ele>1443</ele>
        <time>2016-07-11T11:45:37Z</time>
      </trkpt>
      <trkpt lat="42.52186" lon="2.3299">
        <ele>1438</ele>
        <time>2016-07-11T11:45:42Z</time>
      </trkpt>
      <trkpt lat="42.52244" lon="2.32933">
        <ele>1412</ele>
        <time>2016-07-11T11:45:47Z</time>
      </trkpt>
      <trkpt lat="42.52263" lon="2.32908">
        <ele>1405</ele>
        <time>2016-07-11T11:45:52Z</time>
      </trkpt>
      <trkpt lat="42.52271" lon="2.32865">
        <ele>1411</ele>
        <time>2016-07-11T11:45:57Z</time>
      </trkpt>
      <trkpt lat="42.52283" lon="2.32953">
        <ele>1386</ele>
        <time>2016-07-11T11:46:02Z</time>
      </trkpt>
      <trkpt lat="42.52294" lon="2.32975">
        <ele>1375</ele>
        <time>2016-07-11T11:46:07Z</time>
      </trkpt>
      <trkpt lat="42.52306" lon="2.32959">
        <ele>1371</ele>
        <time>2016-07-11T11:46:12Z</time>
      </trkpt>
      <trkpt lat="42.52318" lon="2.32904">
        <ele>1375</ele>
        <time>2016-07-11T11:46:17Z</time>
      </trkpt>
      <trkpt lat="42.52334" lon="2.32885">
        <ele>1373</ele>
        <time>2016-07-11T11:46:22Z</time>
      </trkpt>
      <trkpt lat="42.5237" lon="2.32881">
        <ele>1367</ele>
        <time>2016-07-11T11:46:27Z</time>
      </trkpt>
      <trkpt lat="42.52422" lon="2.32903">
        <ele>1345</ele>
        <time>2016-07-11T11:46:32Z</time>
      </trkpt>
      <trkpt lat="42.52477" lon="2.32938">
        <ele>1332</ele>
        <time>2016-07-11T11:46:37Z</time>
      </trkpt>
      <trkpt lat="42.52557" lon="2.32983">
        <ele>1305</ele>
        <time>2016-07-11T11:46:42Z</time>
      </trkpt>
      <trkpt lat="42.52589" lon="2.32953">
        <ele>1307</ele>
        <time>2016-07-11T11:46:47Z</time>
      </trkpt>
      <trkpt lat="42.52579" lon="2.33003">
        <ele>1297</ele>
        <time>2016-07-11T11:46:52Z</time>
      </trkpt>
      <trkpt lat="42.52556" lon="2.33071">
        <ele>1271</ele>
        <time>2016-07-11T11:46:57Z</time>
      </trkpt>
      <trkpt lat="42.52608" lon="2.33025">
        <ele>1274</ele>
        <time>2016-07-11T11:47:02Z</time>
      </trkpt>
      <trkpt lat="42.52662" lon="2.32951">
        <ele>1261</ele>
        <time>2016-07-11T11:47:07Z</time>
      </trkpt>
      <trkpt lat="42.5266" lon="2.32996">
        <ele>1252</ele>
        <time>2016-07-11T11:47:12Z</time>
      </trkpt>
      <trkpt lat="42.52713" lon="2.32909">
        <ele>1232</ele>
        <time>2016-07-11T11:47:17Z</time>
      </trkpt>
      <trkpt lat="42.52765" lon="2.32839">
        <ele>1196</ele>
        <time>2016-07-11T11:47:22Z</time>
      </trkpt>
      <trkpt lat="42.52777" lon="2.32859">
        <ele>1185</ele>
        <time>2016-07-11T11:47:27Z</time>
      </trkpt>
      <trkpt lat="42.52784" lon="2.32794">
        <ele>1177</ele>
        <time>2016-07-11T11:47:32Z</time>
      </trkpt>
      <trkpt lat="42.52777" lon="2.32723">
        <ele>1176</ele>
        <time>2016-07-11T11:47:37Z</time>
      </trkpt>
      <trkpt lat="42.52775" lon="2.3269">
        <ele>1177</ele>
        <time>2016-07-11T11:47:42Z</time>
      </trkpt>
      <trkpt lat="42.52787" lon="2.32655">
        <ele>1171</ele>
        <time>2016-07-11T11:47:47Z</time>
      </trkpt>
      <trkpt lat="42.52851" lon="2.32541">
        <ele>1150</ele>
        <time>2016-07-11T11:47:52Z</time>
      </trkpt>
      <trkpt lat="42.52896" lon="2.32481">
        <ele>1136</ele>
        <time>2016-07-11T11:47:57Z</time>
      </trkpt>
      <trkpt lat="42.52945" lon="2.32513">
        <ele>1104</ele>
        <time>2016-07-11T11:48:02Z</time>
      </trkpt>
      <trkpt lat="42.52962" lon="2.32504">
        <ele>1098</ele>
        <time>2016-07-11T11:48:07Z</time>
      </trkpt>
      <trkpt lat="42.52977" lon="2.32478">
        <ele>1093</ele>
        <time>2016-07-11T11:48:12Z</time>
      </trkpt>
      <trkpt lat="42.53002" lon="2.3247">
        <ele>1082</ele>
        <time>2016-07-11T11:48:17Z</time>
      </trkpt>
      <trkpt lat="42.53026" lon="2.32455">
        <ele>1074</ele>
        <time>2016-07-11T11:48:22Z</time>
      </trkpt>
      <trkpt lat="42.53068" lon="2.3246">
        <ele>1054</ele>
        <time>2016-07-11T11:48:27Z</time>
      </trkpt>
      <trkpt lat="42.53092" lon="2.32483">
        <ele>1043</ele>
        <time>2016-07-11T11:48:32Z</time>
      </trkpt>
      <trkpt lat="42.53119" lon="2.32473">
        <ele>1038</ele>
        <time>2016-07-11T11:48:37Z</time>
      </trkpt>
      <trkpt lat="42.53161" lon="2.3226">
        <ele>1036</ele>
        <time>2016-07-11T11:48:42Z</time>
      </trkpt>
      <trkpt lat="42.53167" lon="2.3219">
        <ele>1026</ele>
        <time>2016-07-11T11:48:47Z</time>
      </trkpt>
      <trkpt lat="42.53162" lon="2.32123">
        <ele>1019</ele>
        <time>2016-07-11T11:48:52Z</time>
      </trkpt>
      <trkpt lat="42.53161" lon="2.32069">
        <ele>1013</ele>
        <time>2016-07-11T11:48:57Z</time>
      </trkpt>
      <trkpt lat="42.53174" lon="2.32015">
        <ele>998</ele>
        <time>2016-07-11T11:49:02Z</time>
      </trkpt>
      <trkpt lat="42.53178" lon="2.3196">
        <ele>987</ele>
        <time>2016-07-11T11:49:07Z</time>
      </trkpt>
      <trkpt lat="42.53196" lon="2.31865">
        <ele>965</ele>
        <time>2016-07-11T11:49:12Z</time>
      </trkpt>
      <trkpt lat="42.53201" lon="2.31803">
        <ele>955</ele>
        <time>2016-07-11T11:49:17Z</time>
      </trkpt>
      <trkpt lat="42.53207" lon="2.31777">
        <ele>950</ele>
        <time>2016-07-11T11:49:22Z</time>
      </trkpt>
      <trkpt lat="42.53221" lon="2.31729">
        <ele>939</ele>
        <time>2016-07-11T11:49:27Z</time>
      </trkpt>
      <trkpt lat="42.53215" lon="2.31665">
        <ele>931</ele>
        <time>2016-07-11T11:49:32Z</time>
      </trkpt>
      <trkpt lat="42.53224" lon="2.31602">
        <ele>918</ele>
        <time>2016-07-11T11:49:37Z</time>
      </trkpt>
      <trkpt lat="42.53238" lon="2.31563">
        <ele>908</ele>
        <time>2016-07-11T11:49:42Z</time>
      </trkpt>
      <trkpt lat="42.5324" lon="2.31542">
        <ele>903</ele>
        <time>2016-07-11T11:49:47Z</time>
      </trkpt>
      <trkpt lat="42.53243" lon="2.31519">
        <ele>897</ele>
        <time>2016-07-11T11:49:52Z</time>
      </trkpt>
      <trkpt lat="42.53248" lon="2.31492">
        <ele>890</ele>
        <time>2016-07-11T11:49:57Z</time>
      </trkpt>
      <trkpt lat="42.53263" lon="2.31469">
        <ele>883</ele>
        <time>2016-07-11T11:50:02Z</time>
      </trkpt>
      <trkpt lat="42.53279" lon="2.31481">
        <ele>881</ele>
        <time>2016-07-11T11:50:07Z</time>
      </trkpt>
      <trkpt lat="42.53312" lon="2.31503">
        <ele>876</ele>
        <time>2016-07-11T11:50:12Z</time>
      </trkpt>
      <trkpt lat="42.53329" lon="2.31516">
        <ele>873</ele>
        <time>2016-07-11T11:50:17Z</time>
      </trkpt>
      <trkpt lat="42.53351" lon="2.31486">
        <ele>866</ele>
        <time>2016-07-11T11:50:22Z</time>
      </trkpt>
      <trkpt lat="42.5334" lon="2.31436">
        <ele>865</ele>
        <time>2016-07-11T11:50:27Z</time>
      </trkpt>
      <trkpt lat="42.53351" lon="2.31365">
        <ele>866</ele>
        <time>2016-07-11T11:50:32Z</time>
      </trkpt>
      <trkpt lat="42.53378" lon="2.31354">
        <ele>868</ele>
        <time>2016-07-11T11:50:37Z</time>
      </trkpt>
      <trkpt lat="42.53402" lon="2.31373">
        <ele>866</ele>
        <time>2016-07-11T11:50:42Z</time>
      </trkpt>
      <trkpt lat="42.53429" lon="2.31391">
        <ele>866</ele>
        <time>2016-07-11T11:50:47Z</time>
      </trkpt>
      <trkpt lat="42.53444" lon="2.31425">
        <ele>865</ele>
        <time>2016-07-11T11:50:52Z</time>
      </trkpt>
      <trkpt lat="42.53454" lon="2.31472">
        <ele>862</ele>
        <time>2016-07-11T11:50:57Z</time>
      </trkpt>
      <trkpt lat="42.5345" lon="2.3151">
        <ele>858</ele>
        <time>2016-07-11T11:51:02Z</time>
      </trkpt>
      <trkpt lat="42.5347" lon="2.31533">
        <ele>859</ele>
        <time>2016-07-11T11:51:07Z</time>
      </trkpt>
      <trkpt lat="42.53492" lon="2.31524">
        <ele>863</ele>
        <time>2016-07-11T11:51:12Z</time>
      </trkpt>
      <trkpt lat="42.53524" lon="2.31465">
        <ele>876</ele>
        <time>2016-07-11T11:51:17Z</time>
      </trkpt>
      <trkpt lat="42.53543" lon="2.31445">
        <ele>880</ele>
        <time>2016-07-11T11:51:22Z</time>
      </trkpt>
      <trkpt lat="42.53558" lon="2.31443">
        <ele>883</ele>
        <time>2016-07-11T11:51:27Z</time>
      </trkpt>
      <trkpt lat="42.53591" lon="2.31485">
        <ele>882</ele>
        <time>2016-07-11T11:51:32Z</time>
      </trkpt>
      <trkpt lat="42.53625" lon="2.31531">
        <ele>883</ele>
        <time>2016-07-11T11:51:37Z</time>
      </trkpt>
      <trkpt lat="42.53652" lon="2.31593">
        <ele>881</ele>
        <time>2016-07-11T11:51:42Z</time>
      </trkpt>
      <trkpt lat="42.5367" lon="2.31615">
        <ele>881</ele>
        <time>2016-07-11T11:51:47Z</time>
      </trkpt>
    </trkseg>
  </trk>
</gpx>